Identifiez vous afin de poster une observation
 • Tableaux des observations reportées par F4JFI - Page 1   

Tableaux des observations de F4JFI

F4JFI a posté 383 observation(s).


Pages : 1 - 2 - 3 - 4 - 5 - 6 - 7 - 8 - 9 - 10 - 11 - 12 - 13 - 14 - 15 - 16 - 17 - 18 - 19 - 20 -

DateHeureVillePhénomènesCommentaireContact
03/07/202203:00Périgueux - Alt. 88mTempérature (15.9°C) Humidite : 85% Point de rosée : 13.38 C Pression : 1017 hPa Humidex : 18.9 2022-07-03 03:00:01F4JFI
03/07/202202:00Périgueux - Alt. 88mTempérature (16.4°C) Humidite : 83% Point de rosée : 13.50 C Pression : 1017 hPa Humidex : 19.5 2022-07-03 02:00:01F4JFI
03/07/202201:00Périgueux - Alt. 88mTempérature (16.9°C) Humidite : 80% Point de rosée : 13.43 C Pression : 1017 hPa Humidex : 19.9 2022-07-03 01:00:01F4JFI
03/07/202200:00Périgueux - Alt. 88mTempérature (18°C) Humidite : 76% Point de rosée : 13.71 C Pression : 1017 hPa Humidex : 21.2 2022-07-03 00:00:01F4JFI
02/07/202223:00Périgueux - Alt. 88mTempérature (19.7°C) Humidite : 72% Point de rosée : 14.51 C Pression : 1017 hPa Humidex : 23.4 2022-07-02 23:00:01F4JFI
02/07/202222:00Périgueux - Alt. 88mTempérature (22.7°C) Humidite : 65% Point de rosée : 15.78 C Pression : 1016 hPa Humidex : 27.2 2022-07-02 22:00:01F4JFI
02/07/202221:00Périgueux - Alt. 88mTempérature (26.1°C) Humidite : 52% Point de rosée : 15.48 C Pression : 1015 hPa Humidex : 30.4 2022-07-02 21:00:01F4JFI
02/07/202220:00Périgueux - Alt. 88mTempérature (27.4°C) Humidite : 37% Point de rosée : 11.43 C Pression : 1015 hPa Humidex : 29.4 2022-07-02 20:00:01F4JFI
02/07/202219:00Périgueux - Alt. 88mTempérature (28.9°C) Humidite : 35% Point de rosée : 11.91 C Pression : 1015 hPa Humidex : 31.1 2022-07-02 19:00:01F4JFI
02/07/202218:00Périgueux - Alt. 88mTempérature (28.9°C) Humidite : 39% Point de rosée : 13.56 C Pression : 1015 hPa Humidex : 32 2022-07-02 18:00:01F4JFI
02/07/202217:00Périgueux - Alt. 88mTempérature (28.7°C) Humidite : 38% Point de rosée : 12.98 C Pression : 1015 hPa Humidex : 31.5 2022-07-02 17:00:01F4JFI
02/07/202216:00Périgueux - Alt. 88mTempérature (27.6°C) Humidite : 40% Point de rosée : 12.79 C Pression : 1015 hPa Humidex : 30.3 2022-07-02 16:00:01F4JFI
02/07/202215:00Périgueux - Alt. 88mTempérature (26°C) Humidite : 42% Point de rosée : 12.10 C Pression : 1016 hPa Humidex : 28.3 2022-07-02 15:00:01F4JFI
02/07/202214:00Périgueux - Alt. 88mTempérature (25.5°C) Humidite : 46% Point de rosée : 13.03 C Pression : 1016 hPa Humidex : 28.3 2022-07-02 14:00:01F4JFI
02/07/202213:00Périgueux - Alt. 88mTempérature (23.7°C) Humidite : 58% Point de rosée : 14.95 C Pression : 1017 hPa Humidex : 27.6 2022-07-02 13:00:01F4JFI
02/07/202212:00Périgueux - Alt. 88mTempérature (22.4°C) Humidite : 59% Point de rosée : 14.00 C Pression : 1017 hPa Humidex : 25.8 2022-07-02 12:00:01F4JFI
02/07/202211:00Périgueux - Alt. 88mTempérature (20.2°C) Humidite : 67% Point de rosée : 13.88 C Pression : 1017 hPa Humidex : 23.5 2022-07-02 11:00:01F4JFI
02/07/202210:00Périgueux - Alt. 88mTempérature (17.7°C) Humidite : 75% Point de rosée : 13.21 C Pression : 1018 hPa Humidex : 20.6 2022-07-02 10:00:01F4JFI
02/07/202209:00Périgueux - Alt. 88mTempérature (14.2°C) Humidite : 81% Point de rosée : 10.99 C Pression : 1018 hPa Humidex : 15.9 2022-07-02 09:00:01F4JFI
02/07/202208:00Périgueux - Alt. 88mTempérature (10.4°C) Humidite : 93% Point de rosée : 9.32 C Pression : 1018 hPa Humidex : 11.4 2022-07-02 08:00:01F4JFI


Meteociel™ | © 2004 - 2022 | Forums Météo | Prévi Paris | Paramètres des cookies | Cookies | Média - Meteociel | Mentions légales | Contact